sensor_id;sensor_type;location;lat;lon;timestamp;P1;durP1;ratioP1;P2;durP2;ratioP2
39102;SDS011;24847;48.218;16.414;2023-05-14T00:03:57;6.78;;;6.00;;
39102;SDS011;24847;48.218;16.414;2023-05-14T00:09:01;6.85;;;5.78;;
39102;SDS011;24847;48.218;16.414;2023-05-14T00:14:04;6.07;;;5.45;;
39102;SDS011;24847;48.218;16.414;2023-05-14T00:19:06;6.57;;;5.97;;
39102;SDS011;24847;48.218;16.414;2023-05-14T00:24:10;7.57;;;6.78;;
39102;SDS011;24847;48.218;16.414;2023-05-14T00:29:12;6.90;;;6.30;;
39102;SDS011;24847;48.218;16.414;2023-05-14T00:34:14;5.25;;;4.60;;
39102;SDS011;24847;48.218;16.414;2023-05-14T00:39:18;5.47;;;4.97;;
39102;SDS011;24847;48.218;16.414;2023-05-14T00:44:20;6.00;;;5.13;;
39102;SDS011;24847;48.218;16.414;2023-05-14T00:49:22;6.88;;;6.18;;
39102;SDS011;24847;48.218;16.414;2023-05-14T00:54:26;6.40;;;5.75;;
39102;SDS011;24847;48.218;16.414;2023-05-14T00:59:30;7.57;;;6.80;;
39102;SDS011;24847;48.218;16.414;2023-05-14T01:04:32;6.28;;;5.68;;
39102;SDS011;24847;48.218;16.414;2023-05-14T01:09:37;6.57;;;5.97;;
39102;SDS011;24847;48.218;16.414;2023-05-14T01:14:50;7.75;;;6.47;;
39102;SDS011;24847;48.218;16.414;2023-05-14T01:19:57;6.50;;;5.85;;
39102;SDS011;24847;48.218;16.414;2023-05-14T01:25:02;5.75;;;5.25;;
39102;SDS011;24847;48.218;16.414;2023-05-14T01:30:07;9.02;;;8.07;;
39102;SDS011;24847;48.218;16.414;2023-05-14T01:35:15;7.55;;;6.82;;
39102;SDS011;24847;48.218;16.414;2023-05-14T01:40:19;6.30;;;5.78;;
39102;SDS011;24847;48.218;16.414;2023-05-14T01:45:22;5.47;;;4.97;;
39102;SDS011;24847;48.218;16.414;2023-05-14T01:50:25;6.35;;;5.72;;
39102;SDS011;24847;48.218;16.414;2023-05-14T01:55:28;6.07;;;5.57;;
39102;SDS011;24847;48.218;16.414;2023-05-14T02:00:31;6.47;;;5.88;;
39102;SDS011;24847;48.218;16.414;2023-05-14T02:05:33;6.80;;;6.15;;
39102;SDS011;24847;48.218;16.414;2023-05-14T02:10:37;6.78;;;5.80;;
39102;SDS011;24847;48.218;16.414;2023-05-14T02:15:39;6.32;;;5.72;;
39102;SDS011;24847;48.218;16.414;2023-05-14T02:20:42;5.43;;;4.88;;
39102;SDS011;24847;48.218;16.414;2023-05-14T02:25:46;5.47;;;4.97;;
39102;SDS011;24847;48.218;16.414;2023-05-14T02:30:48;6.60;;;6.00;;
39102;SDS011;24847;48.218;16.414;2023-05-14T02:35:50;6.07;;;5.53;;
39102;SDS011;24847;48.218;16.414;2023-05-14T02:40:53;6.47;;;5.95;;
39102;SDS011;24847;48.218;16.414;2023-05-14T02:45:56;5.43;;;4.93;;
39102;SDS011;24847;48.218;16.414;2023-05-14T02:50:59;5.57;;;5.13;;
39102;SDS011;24847;48.218;16.414;2023-05-14T02:56:02;6.55;;;5.93;;
39102;SDS011;24847;48.218;16.414;2023-05-14T03:01:05;6.22;;;5.70;;
39102;SDS011;24847;48.218;16.414;2023-05-14T03:06:08;6.30;;;5.35;;
39102;SDS011;24847;48.218;16.414;2023-05-14T03:11:12;6.15;;;5.65;;
39102;SDS011;24847;48.218;16.414;2023-05-14T03:16:14;6.15;;;5.65;;
39102;SDS011;24847;48.218;16.414;2023-05-14T03:21:17;6.00;;;5.50;;
39102;SDS011;24847;48.218;16.414;2023-05-14T03:26:20;5.28;;;4.50;;
39102;SDS011;24847;48.218;16.414;2023-05-14T03:31:22;5.20;;;4.40;;
39102;SDS011;24847;48.218;16.414;2023-05-14T03:36:24;5.43;;;4.93;;
39102;SDS011;24847;48.218;16.414;2023-05-14T03:41:28;5.05;;;4.65;;
39102;SDS011;24847;48.218;16.414;2023-05-14T03:46:30;5.18;;;4.75;;
39102;SDS011;24847;48.218;16.414;2023-05-14T03:51:33;5.50;;;5.00;;
39102;SDS011;24847;48.218;16.414;2023-05-14T03:56:37;5.13;;;4.68;;
39102;SDS011;24847;48.218;16.414;2023-05-14T04:01:39;5.30;;;4.80;;
39102;SDS011;24847;48.218;16.414;2023-05-14T04:06:41;5.30;;;4.82;;
39102;SDS011;24847;48.218;16.414;2023-05-14T04:11:45;6.43;;;5.38;;
39102;SDS011;24847;48.218;16.414;2023-05-14T04:16:47;4.85;;;4.38;;
39102;SDS011;24847;48.218;16.414;2023-05-14T04:21:49;5.93;;;5.32;;
39102;SDS011;24847;48.218;16.414;2023-05-14T04:26:53;4.82;;;4.43;;
39102;SDS011;24847;48.218;16.414;2023-05-14T04:31:55;3.92;;;3.63;;
39102;SDS011;24847;48.218;16.414;2023-05-14T04:36:57;4.22;;;3.78;;
39102;SDS011;24847;48.218;16.414;2023-05-14T04:42:01;5.70;;;4.80;;
39102;SDS011;24847;48.218;16.414;2023-05-14T04:47:03;4.18;;;3.88;;
39102;SDS011;24847;48.218;16.414;2023-05-14T04:52:06;3.50;;;3.20;;
39102;SDS011;24847;48.218;16.414;2023-05-14T04:57:10;3.45;;;3.15;;
39102;SDS011;24847;48.218;16.414;2023-05-14T05:02:12;4.78;;;4.25;;
39102;SDS011;24847;48.218;16.414;2023-05-14T05:07:14;4.50;;;4.10;;
39102;SDS011;24847;48.218;16.414;2023-05-14T05:12:18;4.10;;;3.80;;
39102;SDS011;24847;48.218;16.414;2023-05-14T05:17:20;3.45;;;3.15;;
39102;SDS011;24847;48.218;16.414;2023-05-14T05:22:23;4.30;;;3.90;;
39102;SDS011;24847;48.218;16.414;2023-05-14T05:27:26;5.05;;;4.13;;
39102;SDS011;24847;48.218;16.414;2023-05-14T05:32:28;3.20;;;3.00;;
39102;SDS011;24847;48.218;16.414;2023-05-14T05:37:31;3.90;;;3.58;;
39102;SDS011;24847;48.218;16.414;2023-05-14T05:42:34;3.28;;;2.97;;
39102;SDS011;24847;48.218;16.414;2023-05-14T05:47:37;3.58;;;3.28;;
39102;SDS011;24847;48.218;16.414;2023-05-14T05:52:39;2.58;;;2.38;;
39102;SDS011;24847;48.218;16.414;2023-05-14T05:57:43;3.22;;;2.92;;
39102;SDS011;24847;48.218;16.414;2023-05-14T06:02:45;5.15;;;3.25;;
39102;SDS011;24847;48.218;16.414;2023-05-14T06:07:47;3.78;;;3.47;;
39102;SDS011;24847;48.218;16.414;2023-05-14T06:12:50;3.67;;;3.38;;
39102;SDS011;24847;48.218;16.414;2023-05-14T06:17:53;3.60;;;3.30;;
39102;SDS011;24847;48.218;16.414;2023-05-14T06:22:55;3.58;;;3.28;;
39102;SDS011;24847;48.218;16.414;2023-05-14T06:27:58;3.30;;;2.78;;
39102;SDS011;24847;48.218;16.414;2023-05-14T06:33:01;3.70;;;3.40;;
39102;SDS011;24847;48.218;16.414;2023-05-14T06:38:03;3.53;;;3.10;;
39102;SDS011;24847;48.218;16.414;2023-05-14T06:43:09;3.45;;;3.15;;
39102;SDS011;24847;48.218;16.414;2023-05-14T06:48:11;4.03;;;3.13;;
39102;SDS011;24847;48.218;16.414;2023-05-14T06:53:13;3.47;;;3.17;;
39102;SDS011;24847;48.218;16.414;2023-05-14T06:58:17;3.35;;;3.05;;
39102;SDS011;24847;48.218;16.414;2023-05-14T07:03:19;3.80;;;3.40;;
39102;SDS011;24847;48.218;16.414;2023-05-14T07:08:21;3.42;;;3.13;;
39102;SDS011;24847;48.218;16.414;2023-05-14T07:13:25;3.22;;;2.92;;
39102;SDS011;24847;48.218;16.414;2023-05-14T07:18:27;4.25;;;2.95;;
39102;SDS011;24847;48.218;16.414;2023-05-14T07:23:30;2.95;;;2.58;;
39102;SDS011;24847;48.218;16.414;2023-05-14T07:28:34;2.50;;;2.30;;
39102;SDS011;24847;48.218;16.414;2023-05-14T07:33:36;3.17;;;2.70;;
39102;SDS011;24847;48.218;16.414;2023-05-14T07:38:39;2.88;;;2.45;;
39102;SDS011;24847;48.218;16.414;2023-05-14T07:43:42;4.50;;;3.13;;
39102;SDS011;24847;48.218;16.414;2023-05-14T07:48:45;3.33;;;2.33;;
39102;SDS011;24847;48.218;16.414;2023-05-14T07:53:47;2.22;;;2.03;;
39102;SDS011;24847;48.218;16.414;2023-05-14T07:58:51;2.47;;;2.28;;
39102;SDS011;24847;48.218;16.414;2023-05-14T08:03:53;2.25;;;2.05;;
39102;SDS011;24847;48.218;16.414;2023-05-14T08:08:55;2.85;;;2.30;;
39102;SDS011;24847;48.218;16.414;2023-05-14T08:13:59;2.20;;;2.00;;
39102;SDS011;24847;48.218;16.414;2023-05-14T08:19:01;2.22;;;1.92;;
39102;SDS011;24847;48.218;16.414;2023-05-14T08:24:04;2.58;;;2.20;;
39102;SDS011;24847;48.218;16.414;2023-05-14T08:29:08;3.05;;;2.50;;
39102;SDS011;24847;48.218;16.414;2023-05-14T08:34:10;2.70;;;2.50;;
39102;SDS011;24847;48.218;16.414;2023-05-14T08:39:12;2.75;;;2.47;;
39102;SDS011;24847;48.218;16.414;2023-05-14T08:44:17;2.92;;;2.60;;
39102;SDS011;24847;48.218;16.414;2023-05-14T08:49:23;2.38;;;2.17;;
39102;SDS011;24847;48.218;16.414;2023-05-14T08:54:37;2.80;;;2.25;;
39102;SDS011;24847;48.218;16.414;2023-05-14T08:59:41;2.53;;;2.33;;
39102;SDS011;24847;48.218;16.414;2023-05-14T09:04:44;2.63;;;2.42;;
39102;SDS011;24847;48.218;16.414;2023-05-14T09:09:48;2.40;;;2.00;;
39102;SDS011;24847;48.218;16.414;2023-05-14T09:14:52;3.95;;;3.55;;
39102;SDS011;24847;48.218;16.414;2023-05-14T09:19:55;5.07;;;3.80;;
39102;SDS011;24847;48.218;16.414;2023-05-14T09:25:03;3.05;;;2.47;;
39102;SDS011;24847;48.218;16.414;2023-05-14T09:30:10;2.40;;;2.20;;
39102;SDS011;24847;48.218;16.414;2023-05-14T09:35:15;2.42;;;2.22;;
39102;SDS011;24847;48.218;16.414;2023-05-14T09:40:20;8.75;;;7.85;;
39102;SDS011;24847;48.218;16.414;2023-05-14T09:45:25;4.20;;;3.10;;
39102;SDS011;24847;48.218;16.414;2023-05-14T09:50:27;4.93;;;4.47;;
39102;SDS011;24847;48.218;16.414;2023-05-14T09:55:29;4.28;;;3.75;;
39102;SDS011;24847;48.218;16.414;2023-05-14T10:00:33;3.55;;;3.03;;
39102;SDS011;24847;48.218;16.414;2023-05-14T10:05:36;3.42;;;2.92;;
39102;SDS011;24847;48.218;16.414;2023-05-14T10:10:42;2.45;;;2.25;;
39102;SDS011;24847;48.218;16.414;2023-05-14T10:15:46;2.72;;;2.50;;
39102;SDS011;24847;48.218;16.414;2023-05-14T10:20:56;2.50;;;2.30;;
39102;SDS011;24847;48.218;16.414;2023-05-14T10:26:04;2.72;;;2.28;;
39102;SDS011;24847;48.218;16.414;2023-05-14T10:31:09;3.13;;;2.25;;
39102;SDS011;24847;48.218;16.414;2023-05-14T10:36:13;2.58;;;2.38;;
39102;SDS011;24847;48.218;16.414;2023-05-14T10:41:16;2.70;;;2.50;;
39102;SDS011;24847;48.218;16.414;2023-05-14T10:46:22;2.42;;;2.22;;
39102;SDS011;24847;48.218;16.414;2023-05-14T10:51:24;2.42;;;2.22;;
39102;SDS011;24847;48.218;16.414;2023-05-14T10:56:26;2.20;;;2.03;;
39102;SDS011;24847;48.218;16.414;2023-05-14T11:01:30;3.33;;;2.38;;
39102;SDS011;24847;48.218;16.414;2023-05-14T11:06:34;3.42;;;3.13;;
39102;SDS011;24847;48.218;16.414;2023-05-14T11:11:38;5.15;;;4.32;;
39102;SDS011;24847;48.218;16.414;2023-05-14T11:16:42;3.80;;;3.50;;
39102;SDS011;24847;48.218;16.414;2023-05-14T11:21:44;4.07;;;3.33;;
39102;SDS011;24847;48.218;16.414;2023-05-14T11:26:47;4.25;;;3.28;;
39102;SDS011;24847;48.218;16.414;2023-05-14T11:31:50;5.07;;;4.45;;
39102;SDS011;24847;48.218;16.414;2023-05-14T11:36:53;5.03;;;4.53;;
39102;SDS011;24847;48.218;16.414;2023-05-14T11:41:55;3.85;;;3.45;;
39102;SDS011;24847;48.218;16.414;2023-05-14T11:46:59;3.97;;;3.63;;
39102;SDS011;24847;48.218;16.414;2023-05-14T11:52:04;3.33;;;3.03;;
39102;SDS011;24847;48.218;16.414;2023-05-14T11:57:09;2.92;;;2.72;;
39102;SDS011;24847;48.218;16.414;2023-05-14T12:02:16;5.00;;;3.95;;
39102;SDS011;24847;48.218;16.414;2023-05-14T12:07:19;6.72;;;5.90;;
39102;SDS011;24847;48.218;16.414;2023-05-14T12:12:21;3.25;;;2.95;;
39102;SDS011;24847;48.218;16.414;2023-05-14T12:17:25;3.10;;;2.80;;
39102;SDS011;24847;48.218;16.414;2023-05-14T12:22:27;3.15;;;2.78;;
39102;SDS011;24847;48.218;16.414;2023-05-14T12:27:30;3.40;;;2.47;;
39102;SDS011;24847;48.218;16.414;2023-05-14T12:32:34;2.78;;;2.58;;
39102;SDS011;24847;48.218;16.414;2023-05-14T12:37:40;3.47;;;2.92;;
39102;SDS011;24847;48.218;16.414;2023-05-14T12:42:42;3.13;;;2.83;;
39102;SDS011;24847;48.218;16.414;2023-05-14T12:47:46;2.88;;;2.63;;
39102;SDS011;24847;48.218;16.414;2023-05-14T12:52:48;2.78;;;2.58;;
39102;SDS011;24847;48.218;16.414;2023-05-14T12:57:51;2.70;;;2.33;;
39102;SDS011;24847;48.218;16.414;2023-05-14T13:02:56;3.60;;;3.30;;
39102;SDS011;24847;48.218;16.414;2023-05-14T13:07:58;2.72;;;2.53;;
39102;SDS011;24847;48.218;16.414;2023-05-14T13:13:03;2.42;;;2.22;;
39102;SDS011;24847;48.218;16.414;2023-05-14T13:18:06;2.65;;;2.45;;
39102;SDS011;24847;48.218;16.414;2023-05-14T13:23:08;3.20;;;2.88;;
39102;SDS011;24847;48.218;16.414;2023-05-14T13:28:11;2.75;;;2.55;;
39102;SDS011;24847;48.218;16.414;2023-05-14T13:33:14;3.83;;;3.53;;
39102;SDS011;24847;48.218;16.414;2023-05-14T13:38:16;3.00;;;2.70;;
39102;SDS011;24847;48.218;16.414;2023-05-14T13:43:18;2.92;;;2.50;;
39102;SDS011;24847;48.218;16.414;2023-05-14T13:48:22;2.75;;;2.55;;
39102;SDS011;24847;48.218;16.414;2023-05-14T13:53:25;3.10;;;2.80;;
39102;SDS011;24847;48.218;16.414;2023-05-14T13:58:27;3.10;;;2.80;;
39102;SDS011;24847;48.218;16.414;2023-05-14T14:03:31;3.17;;;2.88;;
39102;SDS011;24847;48.218;16.414;2023-05-14T14:08:33;2.85;;;2.45;;
39102;SDS011;24847;48.218;16.414;2023-05-14T14:13:35;2.80;;;2.60;;
39102;SDS011;24847;48.218;16.414;2023-05-14T14:18:40;2.90;;;2.70;;
39102;SDS011;24847;48.218;16.414;2023-05-14T14:23:43;2.65;;;2.45;;
39102;SDS011;24847;48.218;16.414;2023-05-14T14:28:47;2.95;;;2.60;;
39102;SDS011;24847;48.218;16.414;2023-05-14T14:33:51;2.60;;;2.40;;
39102;SDS011;24847;48.218;16.414;2023-05-14T14:38:53;3.95;;;2.53;;
39102;SDS011;24847;48.218;16.414;2023-05-14T14:43:55;3.08;;;2.40;;
39102;SDS011;24847;48.218;16.414;2023-05-14T14:48:59;2.42;;;2.22;;
39102;SDS011;24847;48.218;16.414;2023-05-14T14:54:01;2.67;;;2.47;;
39102;SDS011;24847;48.218;16.414;2023-05-14T14:59:04;2.55;;;2.33;;
39102;SDS011;24847;48.218;16.414;2023-05-14T15:04:07;2.40;;;2.20;;
39102;SDS011;24847;48.218;16.414;2023-05-14T15:09:09;2.42;;;2.22;;
39102;SDS011;24847;48.218;16.414;2023-05-14T15:14:12;2.42;;;2.22;;
39102;SDS011;24847;48.218;16.414;2023-05-14T15:19:15;2.40;;;2.20;;
39102;SDS011;24847;48.218;16.414;2023-05-14T15:24:18;2.60;;;2.40;;
39102;SDS011;24847;48.218;16.414;2023-05-14T15:29:20;2.88;;;2.67;;
39102;SDS011;24847;48.218;16.414;2023-05-14T15:34:23;2.65;;;2.45;;
39102;SDS011;24847;48.218;16.414;2023-05-14T15:39:26;2.75;;;2.50;;
39102;SDS011;24847;48.218;16.414;2023-05-14T15:44:30;2.88;;;2.63;;
39102;SDS011;24847;48.218;16.414;2023-05-14T15:49:34;2.55;;;2.33;;
39102;SDS011;24847;48.218;16.414;2023-05-14T15:54:36;2.60;;;2.40;;
39102;SDS011;24847;48.218;16.414;2023-05-14T15:59:38;2.70;;;2.38;;
39102;SDS011;24847;48.218;16.414;2023-05-14T16:04:42;2.53;;;2.33;;
39102;SDS011;24847;48.218;16.414;2023-05-14T16:09:45;3.13;;;2.63;;
39102;SDS011;24847;48.218;16.414;2023-05-14T16:14:47;2.70;;;2.50;;
39102;SDS011;24847;48.218;16.414;2023-05-14T16:19:51;2.60;;;2.40;;
39102;SDS011;24847;48.218;16.414;2023-05-14T16:24:53;2.50;;;2.30;;
39102;SDS011;24847;48.218;16.414;2023-05-14T16:29:55;3.63;;;3.30;;
39102;SDS011;24847;48.218;16.414;2023-05-14T16:34:59;3.28;;;2.97;;
39102;SDS011;24847;48.218;16.414;2023-05-14T16:40:02;2.58;;;2.33;;
39102;SDS011;24847;48.218;16.414;2023-05-14T16:45:05;2.70;;;2.47;;
39102;SDS011;24847;48.218;16.414;2023-05-14T16:50:10;2.70;;;2.50;;
39102;SDS011;24847;48.218;16.414;2023-05-14T16:55:13;2.95;;;2.65;;
39102;SDS011;24847;48.218;16.414;2023-05-14T17:00:15;2.50;;;2.30;;
39102;SDS011;24847;48.218;16.414;2023-05-14T17:05:19;2.55;;;2.35;;
39102;SDS011;24847;48.218;16.414;2023-05-14T17:10:24;2.67;;;2.40;;
39102;SDS011;24847;48.218;16.414;2023-05-14T17:15:29;2.60;;;2.10;;
39102;SDS011;24847;48.218;16.414;2023-05-14T17:20:33;2.38;;;2.17;;
39102;SDS011;24847;48.218;16.414;2023-05-14T17:25:35;3.78;;;2.60;;
39102;SDS011;24847;48.218;16.414;2023-05-14T17:30:38;3.70;;;3.03;;
39102;SDS011;24847;48.218;16.414;2023-05-14T17:35:42;3.60;;;2.50;;
39102;SDS011;24847;48.218;16.414;2023-05-14T17:40:45;2.63;;;2.42;;
39102;SDS011;24847;48.218;16.414;2023-05-14T17:45:47;3.92;;;2.25;;
39102;SDS011;24847;48.218;16.414;2023-05-14T17:50:51;2.55;;;2.30;;
39102;SDS011;24847;48.218;16.414;2023-05-14T17:55:53;2.50;;;2.20;;
39102;SDS011;24847;48.218;16.414;2023-05-14T18:00:56;2.65;;;2.45;;
39102;SDS011;24847;48.218;16.414;2023-05-14T18:05:59;4.18;;;3.65;;
39102;SDS011;24847;48.218;16.414;2023-05-14T18:11:02;2.72;;;2.47;;
39102;SDS011;24847;48.218;16.414;2023-05-14T18:16:04;2.70;;;2.50;;
39102;SDS011;24847;48.218;16.414;2023-05-14T18:21:08;2.88;;;2.67;;
39102;SDS011;24847;48.218;16.414;2023-05-14T18:26:10;2.47;;;2.28;;
39102;SDS011;24847;48.218;16.414;2023-05-14T18:31:13;2.20;;;2.00;;
39102;SDS011;24847;48.218;16.414;2023-05-14T18:36:17;2.08;;;1.88;;
39102;SDS011;24847;48.218;16.414;2023-05-14T18:41:20;2.20;;;2.00;;
39102;SDS011;24847;48.218;16.414;2023-05-14T18:46:23;2.33;;;2.13;;
39102;SDS011;24847;48.218;16.414;2023-05-14T18:51:29;2.38;;;2.03;;
39102;SDS011;24847;48.218;16.414;2023-05-14T18:56:32;1.73;;;1.63;;
39102;SDS011;24847;48.218;16.414;2023-05-14T19:01:35;2.70;;;1.88;;
39102;SDS011;24847;48.218;16.414;2023-05-14T19:06:40;2.10;;;1.90;;
39102;SDS011;24847;48.218;16.414;2023-05-14T19:11:42;1.83;;;1.73;;
39102;SDS011;24847;48.218;16.414;2023-05-14T19:16:45;2.60;;;1.77;;
39102;SDS011;24847;48.218;16.414;2023-05-14T19:21:49;2.70;;;1.88;;
39102;SDS011;24847;48.218;16.414;2023-05-14T19:26:52;1.60;;;1.50;;
39102;SDS011;24847;48.218;16.414;2023-05-14T19:31:54;1.73;;;1.63;;
39102;SDS011;24847;48.218;16.414;2023-05-14T19:36:58;2.38;;;2.17;;
39102;SDS011;24847;48.218;16.414;2023-05-14T19:42:00;2.58;;;2.35;;
39102;SDS011;24847;48.218;16.414;2023-05-14T19:47:03;3.03;;;2.53;;
39102;SDS011;24847;48.218;16.414;2023-05-14T19:52:07;1.80;;;1.70;;
39102;SDS011;24847;48.218;16.414;2023-05-14T19:57:10;2.03;;;1.88;;
39102;SDS011;24847;48.218;16.414;2023-05-14T20:02:13;1.92;;;1.83;;
39102;SDS011;24847;48.218;16.414;2023-05-14T20:07:18;2.67;;;2.25;;
39102;SDS011;24847;48.218;16.414;2023-05-14T20:12:24;2.25;;;1.90;;
39102;SDS011;24847;48.218;16.414;2023-05-14T20:17:26;2.42;;;1.67;;
39102;SDS011;24847;48.218;16.414;2023-05-14T20:22:30;2.28;;;2.03;;
39102;SDS011;24847;48.218;16.414;2023-05-14T20:27:33;1.90;;;1.80;;
39102;SDS011;24847;48.218;16.414;2023-05-14T20:32:35;2.05;;;1.85;;
39102;SDS011;24847;48.218;16.414;2023-05-14T20:37:39;2.47;;;2.28;;
39102;SDS011;24847;48.218;16.414;2023-05-14T20:42:41;2.28;;;2.03;;
39102;SDS011;24847;48.218;16.414;2023-05-14T20:47:43;2.22;;;2.03;;
39102;SDS011;24847;48.218;16.414;2023-05-14T20:52:47;2.63;;;2.42;;
39102;SDS011;24847;48.218;16.414;2023-05-14T20:57:49;2.30;;;2.10;;
39102;SDS011;24847;48.218;16.414;2023-05-14T21:02:51;2.45;;;2.25;;
39102;SDS011;24847;48.218;16.414;2023-05-14T21:07:55;2.97;;;2.78;;
39102;SDS011;24847;48.218;16.414;2023-05-14T21:12:57;3.05;;;2.75;;
39102;SDS011;24847;48.218;16.414;2023-05-14T21:18:00;4.07;;;3.65;;
39102;SDS011;24847;48.218;16.414;2023-05-14T21:23:04;4.55;;;4.15;;
39102;SDS011;24847;48.218;16.414;2023-05-14T21:28:06;4.15;;;3.75;;
39102;SDS011;24847;48.218;16.414;2023-05-14T21:33:08;2.95;;;2.65;;
39102;SDS011;24847;48.218;16.414;2023-05-14T21:38:12;3.00;;;2.80;;
39102;SDS011;24847;48.218;16.414;2023-05-14T21:43:14;2.83;;;2.63;;
39102;SDS011;24847;48.218;16.414;2023-05-14T21:48:16;3.97;;;3.38;;
39102;SDS011;24847;48.218;16.414;2023-05-14T21:53:20;2.97;;;2.58;;
39102;SDS011;24847;48.218;16.414;2023-05-14T21:58:22;3.55;;;2.63;;
39102;SDS011;24847;48.218;16.414;2023-05-14T22:03:25;2.63;;;2.42;;
39102;SDS011;24847;48.218;16.414;2023-05-14T22:08:28;2.28;;;2.10;;
39102;SDS011;24847;48.218;16.414;2023-05-14T22:13:31;2.33;;;2.13;;
39102;SDS011;24847;48.218;16.414;2023-05-14T22:18:34;2.30;;;2.10;;
39102;SDS011;24847;48.218;16.414;2023-05-14T22:23:38;2.30;;;2.10;;
39102;SDS011;24847;48.218;16.414;2023-05-14T22:28:40;2.67;;;2.47;;
39102;SDS011;24847;48.218;16.414;2023-05-14T22:33:42;2.80;;;2.50;;
39102;SDS011;24847;48.218;16.414;2023-05-14T22:38:46;2.65;;;2.45;;
39102;SDS011;24847;48.218;16.414;2023-05-14T22:43:49;2.67;;;2.47;;
39102;SDS011;24847;48.218;16.414;2023-05-14T22:48:51;2.30;;;2.10;;
39102;SDS011;24847;48.218;16.414;2023-05-14T22:53:54;2.42;;;2.13;;
39102;SDS011;24847;48.218;16.414;2023-05-14T22:58:57;2.08;;;1.88;;
39102;SDS011;24847;48.218;16.414;2023-05-14T23:04:00;1.80;;;1.70;;
39102;SDS011;24847;48.218;16.414;2023-05-14T23:09:03;1.42;;;1.33;;
39102;SDS011;24847;48.218;16.414;2023-05-14T23:14:06;2.03;;;1.83;;
39102;SDS011;24847;48.218;16.414;2023-05-14T23:19:08;1.55;;;1.45;;
39102;SDS011;24847;48.218;16.414;2023-05-14T23:24:12;1.50;;;1.40;;
39102;SDS011;24847;48.218;16.414;2023-05-14T23:29:14;1.48;;;1.38;;
39102;SDS011;24847;48.218;16.414;2023-05-14T23:34:16;1.20;;;1.10;;
39102;SDS011;24847;48.218;16.414;2023-05-14T23:39:20;2.13;;;1.20;;
39102;SDS011;24847;48.218;16.414;2023-05-14T23:44:22;1.35;;;1.25;;
39102;SDS011;24847;48.218;16.414;2023-05-14T23:49:24;1.45;;;1.17;;
39102;SDS011;24847;48.218;16.414;2023-05-14T23:54:28;1.25;;;1.15;;
39102;SDS011;24847;48.218;16.414;2023-05-14T23:59:30;1.60;;;1.40;;
